Time;durP1;ratioP1;P1;durP2;ratioP2;P2;SDS_P1;SDS_P2;PMS_P1;PMS_P2;Temp;Humidity;BMP_temperature;BMP_pressure;BME280_temperature;BME280_humidity;BME280_pressure;Samples;Min_cycle;Max_cycle;Signal;HPM_P1;HPM_P2
2022/03/16 00:01:43;;;;;;;42.22;29.38;;;;;;;5.77;77.82;102187.34;3588002;39;20481;-64
2022/03/16 00:04:08;;;;;;;45.03;30.85;;;;;;;5.73;78.18;102181.19;3588631;40;20063;-64
2022/03/16 00:06:34;;;;;;;43.25;31.23;;;;;;;5.75;78.35;102189.19;3584203;40;20059;-64
2022/03/16 00:09:00;;;;;;;43.78;30.80;;;;;;;5.73;78.20;102189.19;3577069;40;20284;-64
2022/03/16 00:11:26;;;;;;;42.45;28.38;;;;;;;5.71;78.24;102188.34;3580927;40;20067;-63
2022/03/16 00:13:51;;;;;;;39.53;29.60;;;;;;;5.70;78.06;102196.38;3575882;40;20327;-64
2022/03/16 00:16:17;;;;;;;40.88;30.15;;;;;;;5.69;78.42;102186.63;3579850;40;20415;-64
2022/03/16 00:18:42;;;;;;;41.70;29.98;;;;;;;5.69;78.01;102197.28;3579967;40;20295;-64
2022/03/16 00:21:08;;;;;;;40.88;30.05;;;;;;;5.69;78.13;102198.16;3574550;40;20048;-64
2022/03/16 00:23:34;;;;;;;45.60;31.38;;;;;;;5.67;78.58;102186.63;3580865;40;20052;-63
2022/03/16 00:25:59;;;;;;;44.05;32.42;;;;;;;5.60;78.63;102187.69;3577954;40;20295;-64
2022/03/16 00:28:25;;;;;;;42.70;30.45;;;;;;;5.60;78.61;102195.69;3580192;40;20075;-64
2022/03/16 00:30:51;;;;;;;42.88;30.85;;;;;;;5.62;78.37;102199.19;3578158;40;20049;-64
2022/03/16 00:33:16;;;;;;;47.65;32.30;;;;;;;5.61;79.11;102200.09;3574676;40;20479;-64
2022/03/16 00:35:42;;;;;;;46.88;32.42;;;;;;;5.60;79.42;102201.00;3574197;40;20414;-64
2022/03/16 00:38:09;;;;;;;46.72;32.30;;;;;;;5.59;79.21;102193.94;3578919;40;20048;-64
2022/03/16 00:40:36;;;;;;;45.33;31.33;;;;;;;5.56;79.33;102191.31;3582180;40;20044;-63
2022/03/16 00:43:02;;;;;;;48.45;32.83;;;;;;;5.55;79.42;102187.78;3578986;40;20057;-64
2022/03/16 00:45:27;;;;;;;50.90;34.67;;;;;;;5.53;79.29;102189.59;3582946;40;20050;-64
2022/03/16 00:47:53;;;;;;;51.42;34.30;;;;;;;5.09;79.51;102113.09;3578749;40;20268;-64
2022/03/16 00:50:19;;;;;;;49.60;35.08;;;;;;;5.52;79.64;102187.84;3582853;40;20052;-63
2022/03/16 00:52:44;;;;;;;45.78;32.05;;;;;;;5.51;79.72;102183.38;3582142;40;20383;-63
2022/03/16 00:55:10;;;;;;;49.00;35.10;;;;;;;5.25;79.69;102141.22;3578646;40;20095;-64
2022/03/16 00:57:36;;;;;;;46.25;33.22;;;;;;;5.53;79.94;102188.72;3577644;40;20057;-64
2022/03/16 01:00:05;;;;;;;49.50;34.67;;;;;;;5.55;79.45;102182.44;3575169;40;20076;-64
2022/03/16 01:02:31;;;;;;;49.00;34.13;;;;;;;5.59;80.17;102188.59;3578192;40;20060;-63
2022/03/16 01:04:57;;;;;;;47.17;32.63;;;;;;;5.63;79.91;102187.63;3574679;40;20049;-63
2022/03/16 01:07:23;;;;;;;50.08;35.00;;;;;;;5.66;79.88;102181.34;3581321;40;20445;-62
2022/03/16 01:09:49;;;;;;;51.35;35.15;;;;;;;5.68;80.11;102183.09;3580702;40;20142;-63
2022/03/16 01:12:15;;;;;;;51.88;35.55;;;;;;;5.71;80.35;102183.03;3579118;40;20079;-64
2022/03/16 01:14:41;;;;;;;51.30;34.40;;;;;;;5.73;79.76;102175.84;3579419;40;20063;-63
2022/03/16 01:17:07;;;;;;;45.53;33.00;;;;;;;5.75;79.84;102179.38;3581296;40;20074;-63
2022/03/16 01:19:34;;;;;;;50.03;34.33;;;;;;;5.77;79.45;102177.56;3581607;40;20048;-63
2022/03/16 01:22:05;;;;;;;46.85;32.92;;;;;;;5.78;79.66;102178.44;3576629;40;20622;-62
2022/03/16 01:24:31;;;;;;;46.45;33.15;;;;;;;5.80;80.03;102182.84;3576121;40;20088;-63
2022/03/16 01:26:58;;;;;;;51.97;35.67;;;;;;;5.79;79.96;102173.06;3576102;40;20069;-63
2022/03/16 01:29:24;;;;;;;48.53;34.28;;;;;;;5.71;80.04;102153.69;3577270;40;20059;-63
2022/03/16 01:31:55;;;;;;;48.03;34.90;;;;;;;5.85;80.23;102173.84;3575459;40;20099;-63
2022/03/16 01:34:22;;;;;;;47.50;33.25;;;;;;;5.85;79.46;102174.72;3580148;40;20055;-63
2022/03/16 01:36:48;;;;;;;46.53;34.33;;;;;;;5.78;80.04;102157.09;3580072;40;20092;-63
2022/03/16 01:39:15;;;;;;;48.55;33.10;;;;;;;5.85;80.08;102174.72;3581196;40;20122;-63
2022/03/16 01:41:42;;;;;;;45.25;33.33;;;;;;;5.85;79.63;102168.50;3579899;40;20057;-63
2022/03/16 01:44:09;;;;;;;46.17;33.15;;;;;;;5.83;79.53;102160.53;3582602;40;20056;-64
2022/03/16 01:46:35;;;;;;;44.92;32.75;;;;;;;5.82;79.90;102153.44;3581686;40;20306;-64
2022/03/16 01:49:01;;;;;;;42.33;33.65;;;;;;;5.79;79.53;102142.84;3574424;40;20070;-63
2022/03/16 01:51:27;;;;;;;48.05;32.85;;;;;;;5.78;79.32;102141.97;3574675;40;20060;-64
2022/03/16 01:53:52;;;;;;;45.85;34.58;;;;;;;5.73;79.57;102134.94;3573769;40;20063;-62
2022/03/16 01:56:19;;;;;;;44.88;31.77;;;;;;;5.77;79.89;102145.56;3581511;40;20063;-64
2022/03/16 01:58:46;;;;;;;44.92;32.40;;;;;;;5.78;79.64;102147.28;3578754;40;20047;-63
2022/03/16 02:01:13;;;;;;;44.50;32.75;;;;;;;5.77;79.89;102145.56;3578689;40;20061;-63
2022/03/16 02:03:39;;;;;;;45.45;31.77;;;;;;;5.77;80.25;102129.53;3567268;40;20064;-64
2022/03/16 02:06:05;;;;;;;39.72;30.83;;;;;;;5.76;80.11;102130.44;3576611;40;20068;-64
2022/03/16 02:08:32;;;;;;;41.80;29.70;;;;;;;5.76;79.84;102127.75;3575409;40;20051;-64
2022/03/16 02:10:58;;;;;;;41.53;30.60;;;;;;;5.79;80.17;102133.03;3565384;40;20075;-63
2022/03/16 02:13:25;;;;;;;40.10;30.17;;;;;;;5.77;79.53;102126.88;3579838;40;20302;-63
2022/03/16 02:15:51;;;;;;;38.30;27.42;;;;;;;5.78;79.58;102125.94;3578851;40;20056;-63
2022/03/16 02:18:16;;;;;;;39.72;28.00;;;;;;;5.77;79.63;102123.28;3578847;40;20056;-63
2022/03/16 02:20:42;;;;;;;41.30;28.85;;;;;;;5.75;79.17;102123.34;3580211;40;20052;-63
2022/03/16 02:23:09;;;;;;;41.72;28.30;;;;;;;5.58;79.80;102085.47;3577033;40;20336;-63
2022/03/16 02:25:50;;;;;;;36.50;26.67;;;;;;;5.77;79.28;102124.19;3576683;40;20380;-64
2022/03/16 02:28:17;;;;;;;35.15;27.67;;;;;;;5.80;79.27;102124.13;3578847;40;20386;-63
2022/03/16 02:30:43;;;;;;;36.28;27.05;;;;;;;5.59;78.74;102097.91;3580506;40;20082;-62
2022/03/16 02:33:09;;;;;;;39.30;27.13;;;;;;;5.76;78.77;102122.44;3578057;40;20053;-63
2022/03/16 02:35:35;;;;;;;36.20;26.50;;;;;;;5.76;79.25;102133.09;3580163;40;20141;-63
2022/03/16 02:38:01;;;;;;;36.13;26.65;;;;;;;5.75;79.19;102128.69;3580446;40;20446;-63
2022/03/16 02:40:27;;;;;;;33.83;25.63;;;;;;;5.70;79.36;102127.00;3577699;40;20064;-63
2022/03/16 02:42:53;;;;;;;36.00;26.88;;;;;;;5.73;79.02;102122.50;3570172;40;20059;-63
2022/03/16 02:45:19;;;;;;;37.50;26.13;;;;;;;5.69;78.54;102130.59;3578810;40;20055;-63
2022/03/16 02:47:45;;;;;;;33.88;25.60;;;;;;;5.61;79.00;102117.41;3581495;40;20409;-63
2022/03/16 02:50:17;;;;;;;35.05;25.40;;;;;;;5.51;78.61;102105.16;3577253;40;20299;-64
2022/03/16 02:52:44;;;;;;;32.65;25.65;;;;;;;5.58;78.97;102115.69;3575208;40;20040;-63
2022/03/16 02:55:10;;;;;;;36.22;25.33;;;;;;;5.55;78.78;102107.75;3574178;40;20051;-63
2022/03/16 02:57:37;;;;;;;36.08;26.00;;;;;;;5.45;79.13;102094.63;3574368;40;20053;-63
2022/03/16 03:00:09;;;;;;;34.40;26.00;;;;;;;5.51;79.20;102105.16;3574872;40;20072;-63
2022/03/16 03:02:37;;;;;;;33.78;25.67;;;;;;;5.51;79.63;102105.16;3578234;40;20055;-64
2022/03/16 03:05:03;;;;;;;36.53;26.05;;;;;;;5.48;79.33;102100.78;3576550;40;20280;-63
2022/03/16 03:07:29;;;;;;;35.03;25.65;;;;;;;5.47;79.51;102103.47;3579159;40;20122;-64
2022/03/16 03:09:54;;;;;;;32.72;25.63;;;;;;;5.44;79.16;102098.22;3575222;40;20048;-63
2022/03/16 03:12:20;;;;;;;35.80;26.40;;;;;;;5.44;79.38;102103.53;3573641;40;20087;-63
2022/03/16 03:14:45;;;;;;;36.28;26.25;;;;;;;5.42;79.67;102105.34;3574678;40;20052;-63
2022/03/16 03:17:11;;;;;;;35.17;25.05;;;;;;;5.42;79.98;102102.69;3581622;40;20052;-63
2022/03/16 03:19:37;;;;;;;36.30;26.15;;;;;;;5.34;79.60;102093.06;3579356;40;20325;-64
2022/03/16 03:22:05;;;;;;;34.15;25.67;;;;;;;5.30;79.64;102099.38;3576214;40;20060;-64
2022/03/16 03:24:31;;;;;;;34.65;25.30;;;;;;;5.40;79.67;102113.41;3576231;40;20056;-63
2022/03/16 03:26:57;;;;;;;32.88;24.58;;;;;;;5.40;79.70;102125.84;3577916;40;20134;-63
2022/03/16 03:29:23;;;;;;;32.53;24.63;;;;;;;5.40;79.88;102113.41;3577860;40;20049;-63
2022/03/16 03:31:49;;;;;;;32.65;25.13;;;;;;;5.33;79.83;102107.31;3578296;40;20061;-62
2022/03/16 03:34:14;;;;;;;31.85;25.10;;;;;;;5.40;79.23;102112.53;3573086;40;20051;-63
2022/03/16 03:36:41;;;;;;;37.85;27.65;;;;;;;5.38;79.59;102111.66;3580323;40;20326;-63
2022/03/16 03:39:07;;;;;;;34.67;27.30;;;;;;;5.38;79.86;102120.53;3583042;40;20071;-63
2022/03/16 03:41:33;;;;;;;37.45;26.55;;;;;;;5.38;79.55;102115.19;3577772;40;20052;-63
2022/03/16 03:43:58;;;;;;;34.00;25.02;;;;;;;5.36;79.58;102111.72;3580111;40;20083;-63
2022/03/16 03:46:24;;;;;;;32.03;23.98;;;;;;;5.43;79.87;102108.00;3583094;40;20056;-64
2022/03/16 03:48:50;;;;;;;32.83;25.25;;;;;;;5.43;79.61;102112.47;3580843;40;20060;-63
2022/03/16 03:51:15;;;;;;;32.17;24.15;;;;;;;5.44;79.92;102111.53;3579124;40;20060;-63
2022/03/16 03:53:41;;;;;;;32.60;23.40;;;;;;;5.46;79.52;102107.94;3580559;40;20057;-63
2022/03/16 03:56:06;;;;;;;31.95;24.55;;;;;;;5.47;79.40;102109.69;3577999;40;20063;-63
2022/03/16 03:58:32;;;;;;;32.83;23.67;;;;;;;5.46;79.36;102109.75;3578558;40;20048;-63
2022/03/16 04:00:57;;;;;;;32.05;24.83;;;;;;;5.50;79.56;102106.97;3578103;40;20079;-63
2022/03/16 04:03:24;;;;;;;33.20;24.33;;;;;;;5.50;79.07;102114.09;3578929;40;20078;-63
2022/03/16 04:05:51;;;;;;;33.05;25.17;;;;;;;5.46;79.37;102107.06;3575733;40;20052;-63
2022/03/16 04:08:16;;;;;;;36.05;27.08;;;;;;;5.40;78.91;102091.19;3604772;23;20092;-64
2022/03/16 04:10:42;;;;;;;33.75;25.20;;;;;;;5.47;79.49;102100.81;3590132;39;20286;-64
2022/03/16 04:13:07;;;;;;;36.13;26.63;;;;;;;5.50;79.62;102103.44;3585302;40;20056;-64
2022/03/16 04:15:33;;;;;;;33.72;25.48;;;;;;;5.49;79.19;102093.69;3585761;40;20052;-63
2022/03/16 04:17:59;;;;;;;32.85;24.88;;;;;;;5.49;79.10;102099.88;3569571;40;20338;-63
2022/03/16 04:20:25;;;;;;;34.38;25.27;;;;;;;5.49;79.53;102101.69;3573010;40;20045;-63
2022/03/16 04:22:51;;;;;;;34.03;25.50;;;;;;;5.52;79.25;102104.28;3577304;40;20083;-63
2022/03/16 04:25:17;;;;;;;35.08;26.05;;;;;;;5.49;79.50;102096.34;3581989;40;20052;-63
2022/03/16 04:27:42;;;;;;;33.65;26.65;;;;;;;5.54;79.44;102102.44;3577765;40;20053;-63
2022/03/16 04:30:09;;;;;;;34.00;26.48;;;;;;;5.32;79.10;102064.66;3579604;40;20045;-63
2022/03/16 04:32:34;;;;;;;34.85;25.50;;;;;;;5.58;79.07;102106.78;3577633;40;20059;-63
2022/03/16 04:35:00;;;;;;;33.80;26.60;;;;;;;5.58;79.13;102104.13;3580014;40;20049;-63
2022/03/16 04:37:26;;;;;;;34.08;27.00;;;;;;;5.56;79.18;102095.31;3580172;40;20075;-63
2022/03/16 04:39:51;;;;;;;36.60;28.58;;;;;;;5.54;79.14;102102.44;3574937;40;20053;-63
2022/03/16 04:42:17;;;;;;;38.05;28.30;;;;;;;5.52;79.13;102101.63;3577462;40;20044;-63
2022/03/16 04:44:42;;;;;;;36.13;27.75;;;;;;;5.52;79.14;102107.81;3576955;40;20306;-63
2022/03/16 04:47:08;;;;;;;37.70;28.67;;;;;;;5.54;79.68;102105.09;3575369;40;20119;-63
2022/03/16 04:49:34;;;;;;;38.63;28.58;;;;;;;5.56;79.27;102097.97;3578169;40;20052;-63
2022/03/16 04:51:59;;;;;;;38.92;28.92;;;;;;;5.54;79.14;102099.78;3580318;40;20057;-63
2022/03/16 04:54:25;;;;;;;36.22;28.35;;;;;;;5.52;79.13;102098.94;3577858;40;20056;-63
2022/03/16 04:56:50;;;;;;;35.25;27.67;;;;;;;5.52;79.10;102090.94;3579321;40;20052;-63
2022/03/16 04:59:17;;;;;;;37.80;28.90;;;;;;;5.50;79.48;102100.75;3579687;40;20054;-63
2022/03/16 05:01:43;;;;;;;39.08;31.35;;;;;;;5.50;79.15;102108.75;3579787;40;20052;-63
2022/03/16 05:04:08;;;;;;;38.90;30.67;;;;;;;5.50;79.44;102108.75;3579581;40;20334;-63
2022/03/16 05:06:34;;;;;;;38.97;31.83;;;;;;;5.51;79.66;102113.16;3582168;40;20054;-63
2022/03/16 05:08:59;;;;;;;40.58;30.73;;;;;;;5.54;79.86;102105.09;3580989;40;20134;-63
2022/03/16 05:11:25;;;;;;;41.33;30.95;;;;;;;5.53;79.35;102103.38;3578614;40;20044;-64
2022/03/16 05:13:51;;;;;;;41.33;31.55;;;;;;;5.52;79.35;102101.63;3577101;40;20064;-61
2022/03/16 05:16:16;;;;;;;39.35;31.02;;;;;;;5.49;79.00;102102.56;3581113;40;20102;-63
2022/03/16 05:18:44;;;;;;;40.28;31.17;;;;;;;5.43;79.66;102085.81;3578244;40;20052;-63
2022/03/16 05:21:10;;;;;;;37.17;28.77;;;;;;;5.50;79.52;102103.44;3581795;40;20045;-63
2022/03/16 05:23:36;;;;;;;37.47;28.25;;;;;;;5.47;79.74;102083.03;3579503;40;20084;-63
2022/03/16 05:26:04;;;;;;;38.40;28.13;;;;;;;5.52;79.70;102090.94;3577314;40;20070;-63
2022/03/16 05:28:30;;;;;;;35.67;27.20;;;;;;;5.52;79.23;102088.28;3581729;40;20406;-62
2022/03/16 05:30:55;;;;;;;34.67;27.63;;;;;;;5.50;79.26;102082.97;3578191;40;20044;-61
2022/03/16 05:33:23;;;;;;;35.35;27.45;;;;;;;5.52;79.36;102081.16;3578920;40;20433;-64
2022/03/16 05:35:49;;;;;;;32.58;25.55;;;;;;;5.53;79.14;102088.22;3577556;40;20111;-61
2022/03/16 05:38:15;;;;;;;35.03;27.08;;;;;;;5.53;78.89;102090.03;3579898;40;20065;-61
2022/03/16 05:40:44;;;;;;;35.58;27.27;;;;;;;5.50;78.93;102077.63;3578470;40;20066;-64
2022/03/16 05:43:11;;;;;;;35.70;26.88;;;;;;;5.42;79.25;102065.34;3575895;40;20048;-64
2022/03/16 05:45:38;;;;;;;35.05;26.90;;;;;;;5.37;79.03;102069.91;3576049;40;20142;-63
2022/03/16 05:48:04;;;;;;;32.80;25.48;;;;;;;5.51;78.91;102095.38;3577418;40;20122;-62
2022/03/16 05:50:30;;;;;;;34.88;26.50;;;;;;;5.53;79.40;102092.69;3578639;40;20068;-63
2022/03/16 05:53:00;;;;;;;32.60;24.75;;;;;;;5.57;78.89;102100.59;3580468;40;20096;-62
2022/03/16 05:55:27;;;;;;;32.95;24.42;;;;;;;5.57;78.82;102110.38;3578073;40;20059;-62
2022/03/16 05:57:53;;;;;;;31.20;24.67;;;;;;;5.28;78.65;102050.53;3578288;40;20056;-62
2022/03/16 06:00:21;;;;;;;33.35;24.45;;;;;;;5.62;79.06;102119.19;3580700;40;20052;-63
2022/03/16 06:02:49;;;;;;;30.88;24.35;;;;;;;5.62;78.93;102108.50;3574526;40;20068;-63
2022/03/16 06:05:16;;;;;;;33.88;24.38;;;;;;;5.65;78.93;102103.13;3578110;40;20696;-65
2022/03/16 06:07:43;;;;;;;32.45;23.75;;;;;;;5.66;78.42;102112.88;3578223;40;20388;-65
2022/03/16 06:10:16;;;;;;;30.40;23.52;;;;;;;5.73;78.63;102117.16;3574771;40;20056;-65
2022/03/16 06:13:01;;;;;;;30.95;23.27;;;;;;;5.73;78.04;102117.16;3575603;40;20048;-65
2022/03/16 06:15:40;;;;;;;32.05;23.85;;;;;;;5.66;78.14;102104.00;3575888;40;20071;-65
2022/03/16 06:18:06;;;;;;;30.45;22.58;;;;;;;5.75;78.32;102123.34;3580487;40;20422;-65
2022/03/16 06:20:34;;;;;;;31.25;23.58;;;;;;;5.78;78.26;102109.94;3578812;40;20055;-65
2022/03/16 06:23:00;;;;;;;29.23;23.50;;;;;;;5.79;77.70;102106.34;3576813;40;20067;-65
2022/03/16 06:25:27;;;;;;;30.88;22.80;;;;;;;5.88;77.49;102115.09;3576359;40;20067;-65
2022/03/16 06:27:55;;;;;;;29.35;21.80;;;;;;;5.94;77.32;102109.66;3576990;40;20064;-65
2022/03/16 06:30:21;;;;;;;28.25;22.27;;;;;;;6.00;77.28;102115.72;3580885;40;20047;-65
2022/03/16 06:32:47;;;;;;;29.15;22.13;;;;;;;6.08;77.08;102117.34;3579133;40;20064;-65
2022/03/16 06:35:15;;;;;;;28.63;21.88;;;;;;;6.11;76.58;102118.16;3579766;40;20047;-65
2022/03/16 06:37:42;;;;;;;29.90;22.17;;;;;;;6.13;77.05;102116.34;3579036;40;20059;-65
2022/03/16 06:40:09;;;;;;;27.25;20.40;;;;;;;6.04;76.65;102092.50;3577211;40;20052;-64
2022/03/16 06:42:43;;;;;;;28.50;21.92;;;;;;;6.19;76.31;102116.19;3580031;40;20053;-65
2022/03/16 06:45:09;;;;;;;30.35;21.50;;;;;;;6.24;76.08;102106.25;3578828;40;20067;-65
2022/03/16 06:47:34;;;;;;;25.33;20.52;;;;;;;6.37;75.96;102111.31;3580234;40;20052;-65
2022/03/16 06:50:00;;;;;;;27.70;19.77;;;;;;;6.42;75.18;102107.63;3575360;40;20063;-65
2022/03/16 06:52:26;;;;;;;24.70;19.60;;;;;;;6.49;75.07;102103.03;3578230;40;20052;-64
2022/03/16 06:54:51;;;;;;;27.13;20.55;;;;;;;6.55;74.87;102094.84;3577476;40;20060;-64
2022/03/16 06:57:17;;;;;;;26.67;19.20;;;;;;;6.60;74.72;102084.94;3578133;40;20064;-64
2022/03/16 06:59:42;;;;;;;25.67;18.63;;;;;;;6.66;74.84;102083.88;3577037;40;20061;-64
2022/03/16 07:02:08;;;;;;;25.02;18.83;;;;;;;6.67;74.66;102078.53;3575142;40;20090;-64
2022/03/16 07:04:33;;;;;;;25.40;18.15;;;;;;;6.73;74.15;102081.03;3576026;40;20387;-64
2022/03/16 07:06:59;;;;;;;23.23;17.40;;;;;;;6.73;73.75;102086.38;3577212;40;20063;-65
2022/03/16 07:09:26;;;;;;;24.10;18.23;;;;;;;6.28;74.26;102001.16;3578008;40;20379;-67
2022/03/16 07:11:52;;;;;;;24.75;17.67;;;;;;;6.75;74.15;102072.97;3573630;40;20364;-65
2022/03/16 07:14:32;;;;;;;22.75;17.38;;;;;;;6.87;73.49;102077.13;3575195;40;20082;-65
2022/03/16 07:16:59;;;;;;;25.15;17.92;;;;;;;7.01;73.63;102074.06;3579480;40;20388;-65
2022/03/16 07:19:25;;;;;;;22.00;17.17;;;;;;;7.12;73.49;102080.91;3580897;40;20094;-65
2022/03/16 07:21:50;;;;;;;22.60;16.90;;;;;;;7.26;73.03;102079.63;3579568;40;20052;-65
2022/03/16 07:24:16;;;;;;;26.70;17.42;;;;;;;7.36;72.69;102062.44;3577729;40;20121;-65
2022/03/16 07:26:42;;;;;;;23.27;16.50;;;;;;;7.61;71.38;102082.19;3579992;40;20056;-66
2022/03/16 07:29:09;;;;;;;20.88;16.15;;;;;;;7.83;71.13;102073.50;3581544;40;20052;-65
2022/03/16 07:31:34;;;;;;;21.23;16.58;;;;;;;8.03;70.74;102063.06;3579615;40;20060;-66
2022/03/16 07:34:01;;;;;;;20.77;16.30;;;;;;;8.14;69.19;102063.59;3581278;40;20060;-65
2022/03/16 07:36:27;;;;;;;22.67;15.27;;;;;;;8.31;68.67;102067.56;3580975;40;20164;-65
2022/03/16 07:38:53;;;;;;;18.55;15.18;;;;;;;8.45;68.56;102059.97;3579994;40;20134;-66
2022/03/16 07:41:19;;;;;;;19.50;14.88;;;;;;;8.69;67.71;102057.38;3580112;40;20052;-65
2022/03/16 07:43:45;;;;;;;18.27;14.77;;;;;;;8.91;67.12;102058.41;3578105;40;20473;-65
2022/03/16 07:46:11;;;;;;;18.92;15.00;;;;;;;9.13;66.55;102054.94;3580944;40;20056;-66
2022/03/16 07:48:38;;;;;;;20.25;14.68;;;;;;;9.32;65.64;102056.00;3579069;40;20123;-64
2022/03/16 07:51:04;;;;;;;18.33;13.80;;;;;;;9.36;64.76;102057.69;3578444;40;20048;-64
2022/03/16 07:53:30;;;;;;;18.35;14.10;;;;;;;9.32;64.77;102056.00;3577507;40;20059;-64
2022/03/16 07:55:57;;;;;;;21.58;14.07;;;;;;;9.33;64.39;102065.84;3577894;40;20739;-64
2022/03/16 07:58:23;;;;;;;24.25;14.98;;;;;;;9.40;65.00;102070.03;3575753;40;20074;-64
2022/03/16 08:00:49;;;;;;;18.80;14.93;;;;;;;9.45;64.71;102067.16;3577371;40;20068;-64
2022/03/16 08:03:15;;;;;;;16.60;12.75;;;;;;;9.54;64.41;102064.16;3576315;40;20092;-65
2022/03/16 08:05:41;;;;;;;19.02;14.77;;;;;;;9.67;63.89;102067.25;3575130;40;20306;-65
2022/03/16 08:08:06;;;;;;;17.77;14.65;;;;;;;9.81;63.38;102066.72;3579112;40;20056;-65
2022/03/16 08:10:32;;;;;;;18.33;13.88;;;;;;;9.82;63.06;102047.84;3580795;40;20059;-65
2022/03/16 08:12:58;;;;;;;19.08;13.48;;;;;;;10.00;62.49;102068.63;3578772;40;20052;-64
2022/03/16 08:15:24;;;;;;;16.92;13.77;;;;;;;9.95;62.18;102067.03;3580652;40;20056;-64
2022/03/16 08:17:50;;;;;;;19.75;14.65;;;;;;;9.91;62.53;102055.56;3580079;40;20068;-65
2022/03/16 08:20:16;;;;;;;17.70;13.80;;;;;;;9.97;61.79;102054.44;3580629;40;20055;-64
2022/03/16 08:22:41;;;;;;;17.65;14.27;;;;;;;10.08;61.56;102051.31;3575084;40;20088;-65
2022/03/16 08:25:11;;;;;;;20.10;14.52;;;;;;;10.24;61.69;102052.44;3574846;40;20410;-64
2022/03/16 08:27:39;;;;;;;17.83;13.88;;;;;;;10.43;61.64;102058.88;3574247;40;20055;-65
2022/03/16 08:30:08;;;;;;;17.85;14.35;;;;;;;10.64;60.92;102062.47;3581583;40;20049;-65
2022/03/16 08:32:34;;;;;;;18.55;14.25;;;;;;;10.78;59.88;102056.47;3577186;40;20064;-65
2022/03/16 08:35:01;;;;;;;18.52;14.40;;;;;;;10.93;59.25;102046.88;3579895;40;20064;-65
2022/03/16 08:37:26;;;;;;;21.00;14.18;;;;;;;11.23;59.18;102052.75;3576659;40;20346;-66
2022/03/16 08:39:52;;;;;;;18.75;14.38;;;;;;;11.42;58.46;102046.50;3579814;40;20060;-64
2022/03/16 08:42:18;;;;;;;21.50;14.60;;;;;;;11.55;58.12;102045.00;3580220;40;20056;-65
2022/03/16 08:44:45;;;;;;;22.83;13.90;;;;;;;11.63;57.45;102062.53;3579707;40;20048;-65
2022/03/16 08:47:16;;;;;;;16.20;13.52;;;;;;;11.80;55.77;102058.19;3580033;40;20068;-65
2022/03/16 08:49:43;;;;;;;16.58;13.20;;;;;;;11.89;56.08;102065.00;3574282;40;20049;-65
2022/03/16 08:52:10;;;;;;;18.08;13.88;;;;;;;12.12;55.16;102064.78;3579528;40;20057;-65
2022/03/16 08:54:36;;;;;;;19.48;13.65;;;;;;;12.31;54.91;102064.75;3579864;40;20048;-64
2022/03/16 08:57:02;;;;;;;16.92;13.82;;;;;;;12.29;53.85;102075.59;3581490;40;20057;-65
2022/03/16 08:59:28;;;;;;;18.58;13.93;;;;;;;12.31;53.96;102076.41;3582152;40;20048;-65
2022/03/16 09:01:53;;;;;;;19.38;14.57;;;;;;;12.36;53.91;102088.78;3579425;40;20060;-65
2022/03/16 09:04:19;;;;;;;18.80;13.82;;;;;;;12.39;54.25;102088.63;3581810;40;20296;-65
2022/03/16 09:06:45;;;;;;;19.38;13.60;;;;;;;12.69;54.67;102089.81;3580951;40;20080;-65
2022/03/16 09:09:10;;;;;;;20.75;14.80;;;;;;;12.84;53.19;102106.16;3579627;40;20440;-65
2022/03/16 09:11:36;;;;;;;20.08;14.32;;;;;;;12.88;52.97;102080.78;3575161;40;20123;-65
2022/03/16 09:14:02;;;;;;;19.48;14.48;;;;;;;12.99;52.59;102083.78;3581500;40;20091;-66
2022/03/16 09:16:29;;;;;;;17.63;13.63;;;;;;;13.10;52.12;102076.00;3580961;40;20061;-65
2022/03/16 09:18:55;;;;;;;18.92;13.75;;;;;;;13.09;52.51;102082.34;3579274;40;20061;-65
2022/03/16 09:21:21;;;;;;;23.08;14.75;;;;;;;13.18;52.37;102079.16;3577909;40;20059;-65
2022/03/16 09:23:47;;;;;;;20.73;14.90;;;;;;;13.35;51.98;102077.41;3577113;40;20280;-65
2022/03/16 09:26:12;;;;;;;18.33;14.40;;;;;;;13.54;51.67;102080.91;3580710;40;20100;-65
2022/03/16 09:28:38;;;;;;;23.45;14.93;;;;;;;13.53;51.42;102072.88;3580844;40;20170;-65
2022/03/16 09:31:04;;;;;;;17.48;13.50;;;;;;;13.55;51.61;102066.44;3578342;40;20360;-65
2022/03/16 09:33:30;;;;;;;20.00;14.30;;;;;;;13.57;51.37;102064.50;3577978;40;20052;-65
2022/03/16 09:36:00;;;;;;;19.38;13.98;;;;;;;13.62;51.49;102042.66;3580070;40;20068;-65
2022/03/16 09:38:26;;;;;;;21.45;14.73;;;;;;;14.07;50.73;102059.94;3575717;40;20084;-65
2022/03/16 09:40:56;;;;;;;19.50;14.95;;;;;;;14.32;50.73;102067.53;3574072;40;20122;-65
2022/03/16 09:43:24;;;;;;;20.30;14.55;;;;;;;14.30;49.44;102031.56;3573870;40;20052;-65
2022/03/16 09:46:04;;;;;;;21.17;14.65;;;;;;;14.50;49.57;102049.38;3577516;40;20053;-65
2022/03/16 09:48:32;;;;;;;18.13;13.60;;;;;;;14.60;49.07;102056.88;3577998;40;20064;-65
2022/03/16 09:50:59;;;;;;;21.77;15.23;;;;;;;14.65;48.90;102047.59;3576049;40;20061;-65
2022/03/16 09:53:26;;;;;;;18.98;14.70;;;;;;;14.35;49.57;101995.19;3577851;40;20045;-65
2022/03/16 09:55:55;;;;;;;20.33;15.18;;;;;;;14.63;48.99;102035.03;3574233;40;20056;-65
2022/03/16 09:58:22;;;;;;;20.95;16.10;;;;;;;14.55;49.46;102036.44;3574742;40;20053;-65
2022/03/16 10:00:48;;;;;;;20.05;14.70;;;;;;;14.67;49.42;102034.84;3577618;40;20118;-65
2022/03/16 10:03:16;;;;;;;23.10;15.07;;;;;;;14.70;49.16;102007.63;3575870;40;20063;-65
2022/03/16 10:05:46;;;;;;;20.58;14.43;;;;;;;15.01;47.96;102031.00;3575306;40;20119;-66
2022/03/16 10:08:14;;;;;;;19.83;13.88;;;;;;;14.97;47.65;102041.13;3601721;23;20036;-62
2022/03/16 10:13:25;;;;;;;17.50;12.82;;;;;;;15.19;47.53;102026.25;3588314;40;20425;-62
2022/03/16 10:15:55;;;;;;;17.80;13.95;;;;;;;15.38;48.58;102024.16;3585486;39;20048;-63
2022/03/16 10:18:25;;;;;;;17.30;13.88;;;;;;;15.58;47.80;102032.88;3585838;40;20052;-63
2022/03/16 10:20:52;;;;;;;17.17;13.23;;;;;;;15.82;45.89;102028.59;3584726;40;20049;-62
2022/03/16 10:23:25;;;;;;;14.60;12.43;;;;;;;15.78;47.00;102027.94;3587159;40;20143;-63
2022/03/16 10:25:58;;;;;;;15.23;12.02;;;;;;;15.80;46.16;102030.56;3584368;40;20095;-62
2022/03/16 10:28:32;;;;;;;18.42;12.18;;;;;;;15.76;46.26;102019.03;3583785;40;20386;-63
2022/03/16 10:31:07;;;;;;;16.58;12.48;;;;;;;16.01;47.22;102021.00;3582642;40;20064;-63
2022/03/16 10:33:49;;;;;;;23.58;12.93;;;;;;;16.05;46.42;102026.22;3582745;40;20064;-63
2022/03/16 10:36:17;;;;;;;15.00;12.43;;;;;;;16.11;46.18;102023.09;3585253;40;20056;-63
2022/03/16 10:38:45;;;;;;;22.75;13.02;;;;;;;16.15;46.30;102019.25;3585863;40;20161;-62
2022/03/16 10:47:12;;;;;;;14.23;10.90;;;;;;;16.54;44.55;102018.41;3584025;40;20063;-63
2022/03/16 10:49:38;;;;;;;16.35;12.27;;;;;;;16.62;46.45;102007.03;3584019;40;20104;-62
2022/03/16 10:52:19;;;;;;;16.58;12.05;;;;;;;16.67;44.73;102007.56;3586019;40;20133;-63
2022/03/16 10:54:48;;;;;;;14.85;11.25;;;;;;;16.85;44.90;102017.19;3587319;40;20059;-63
2022/03/16 10:57:15;;;;;;;14.18;11.73;;;;;;;16.86;44.09;102023.50;3588704;40;20055;-63
2022/03/16 10:59:43;;;;;;;15.27;11.88;;;;;;;16.67;45.22;102019.28;3583888;40;20296;-62
2022/03/16 11:02:14;;;;;;;15.63;11.68;;;;;;;16.76;45.22;102027.81;3586344;40;20468;-63
2022/03/16 11:04:46;;;;;;;13.65;11.10;;;;;;;16.71;45.21;102015.41;3584556;40;20113;-62
2022/03/16 11:07:12;;;;;;;14.65;11.30;;;;;;;16.44;45.27;101984.72;3586769;40;20040;-63
2022/03/16 11:09:39;;;;;;;13.43;11.13;;;;;;;16.43;45.30;102002.84;3587242;39;20064;-62
2022/03/16 11:14:52;;;;;;;14.15;10.80;;;;;;;15.93;46.75;102014.34;3585067;40;20088;-62
2022/03/16 11:17:20;;;;;;;13.85;11.80;;;;;;;15.68;47.20;102004.22;3585091;40;20083;-62
2022/03/16 11:19:51;;;;;;;15.88;11.68;;;;;;;15.56;47.61;102016.69;3585545;40;20068;-63
2022/03/16 11:24:15;;;;;;;14.57;11.48;;;;;;;15.53;48.53;102015.03;3587141;39;20518;-62
2022/03/16 11:25:26;;;;;;;12.98;10.20;;;;;;;15.82;47.97;102009.63;3583937;40;20060;-61